Weather forecast for Kerch (Керчь)

Ukraine, 10 m
N45.193, E36.303


Sounding

Red line — air temperature ˚C.
Blue line — thermal bubble temperature ˚C.
Green line — dew point temperature ˚C.
Wind speed is in meters per second.

Table forecast

GFS 0.25˚ model

temp. wind gust humid. clouds prec. press. hpbl
Thu26 00:00 13 209.0 ssw 4 7 80 10 0.0 1016 131
03:00 13 217.0 sw 3 4 80 13 0.0 1016 84
06:00 13 212.0 ssw 3 4 79 27 0.0 1016 66
09:00 18 200.0 ssw 4 6 58 30 0.0 1016 320
12:00 21 199.0 ssw 6 8 46 41 0.0 1016 541
15:00 21 202.0 ssw 6 8 43 37 0.0 1016 501
18:00 19 198.0 ssw 5 7 50 32 0.0 1015 280
21:00 15 205.0 ssw 4 5 55 33 0.0 1015 90
 
Fri27 00:00 14 215.0 sw 3 4 52 20 0.0 1015 52
03:00 14 227.0 sw 2 2 52 19 0.0 1014 23
06:00 14 162.0 sse 1 1 54 0 0.0 1014 23
09:00 20 133.0 se 1 2 38 0 0.0 1014 235
12:00 25 164.0 sse 1 1 35 0 0.0 1014 599
15:00 25 241.0 wsw 2 3 33 0 0.0 1013 1025
18:00 22 249.0 wsw 2 2 42 0 0.0 1013 237
21:00 17 309.0 nw 2 3 52 0 0.0 1014 24
 
Sat28 00:00 15 312.0 nw 5 9 64 0 0.0 1015 205
03:00 12 347.0 nnw 6 11 90 0 0.0 1017 301
06:00 10 2.0 n 6 11 85 0 0.0 1018 358
09:00 14 26.0 nne 7 10 68 0 0.0 1020 473
12:00 16 26.0 nne 7 9 57 0 0.0 1021 505
15:00 17 25.0 nne 7 9 50 0 0.0 1021 565
18:00 16 27.0 nne 5 8 52 0 0.0 1021 439
21:00 12 18.0 nne 4 7 64 0 0.0 1022 116
 
Sun29 00:00 11 25.0 nne 4 7 67 0 0.0 1022 139
03:00 11 36.0 ne 4 9 71 0 0.0 1023 179
06:00 11 49.0 ne 5 10 75 0 0.0 1023 199
09:00 16 69.0 ene 7 11 55 0 0.0 1023 686
12:00 19 59.0 ene 8 11 45 0 0.0 1023 914
15:00 19 48.0 ne 9 11 47 0 0.0 1022 739
18:00 16 40.0 ne 8 13 58 0 0.0 1021 445
21:00 14 52.0 ne 6 13 64 0 0.0 1021 297
 
Mon30 00:00 14 62.0 ene 7 14 65 0 0.0 1020 384
03:00 13 63.0 ene 7 14 61 0 0.0 1019 363
06:00 12 70.0 ene 8 16 64 0 0.0 1018 395
09:00 16 81.0 e 9 14 54 0 0.0 1019 511
12:00 21 79.0 e 8 12 45 0 0.0 1018 798
15:00 22 71.0 ene 8 11 44 0 0.0 1017 960
18:00 20 65.0 ene 7 10 51 0 0.0 1016 488
21:00 16 67.0 ene 5 11 60 0 0.0 1016 223
 

0.007 s